Terminal Aerodrome Forecast
Issued by NWS Brownsville, TX

Home | Current Version | Previous Version | Text Only | Print | Product List | Glossary On
Versions: 1 2 3 4 5 6 7 8 9 10 11 12 13 14 15 16 17 18
000
FTUS44 KBRO 191724
TAFMFE
TAF
KMFE 191724Z 1918/2018 15013G18KT P6SM SCT040
     FM200000 12011KT P6SM FEW080
     FM200500 15006KT P6SM FEW015 SCT025
      TEMPO 2009/2013 4SM BR BKN015
     FM201500 14010KT P6SM VCSH SCT025 BKN050=

USA.gov is the U.S. government's official web portal to all federal, state and local government web resources and services.